Time;durP1;ratioP1;P1;durP2;ratioP2;P2;SDS_P1;SDS_P2;PMS_P1;PMS_P2;Temp;Humidity;BMP_temperature;BMP_pressure;BME280_temperature;BME280_humidity;BME280_pressure;Samples;Min_cycle;Max_cycle;Signal;HPM_P1;HPM_P2
2021/05/18 00:00:45;;;;;;;5.80;3.30;;;;;;;12.04;42.23;100648.16;3527089;40;20055;-74
2021/05/18 00:03:16;;;;;;;7.53;3.40;;;;;;;12.06;42.55;100647.16;3532729;40;20055;-74
2021/05/18 00:05:47;;;;;;;5.70;3.33;;;;;;;12.05;42.64;100643.53;3536104;40;20074;-74
2021/05/18 00:08:16;;;;;;;6.60;2.88;;;;;;;12.05;42.57;100646.28;3536254;40;20061;-73
2021/05/18 00:13:36;;;;;;;4.93;3.00;;;;;;;12.04;42.50;100648.16;3536306;40;20051;-73
2021/05/18 00:16:06;;;;;;;4.60;3.00;;;;;;;12.05;42.44;100643.53;3534755;40;20049;-73
2021/05/18 00:18:36;;;;;;;7.22;4.13;;;;;;;12.06;42.73;100647.16;3537288;40;20050;-73
2021/05/18 00:21:04;;;;;;;5.57;3.40;;;;;;;12.04;42.82;100647.28;3535826;40;20050;-73
2021/05/18 00:23:32;;;;;;;4.25;2.92;;;;;;;12.04;42.62;100652.78;3527996;40;20374;-74
2021/05/18 00:26:01;;;;;;;6.30;3.25;;;;;;;12.03;42.68;100645.56;3536508;40;20085;-73
2021/05/18 00:28:29;;;;;;;5.75;3.30;;;;;;;12.02;42.76;100647.44;3536090;40;20093;-73
2021/05/18 00:30:57;;;;;;;5.32;2.97;;;;;;;12.02;43.10;100641.09;3536326;40;20046;-73
2021/05/18 00:33:25;;;;;;;5.07;3.55;;;;;;;12.01;42.86;100642.13;3536898;40;20061;-73
2021/05/18 00:35:54;;;;;;;4.97;3.22;;;;;;;12.00;42.99;100640.38;3531394;40;20057;-74
2021/05/18 00:38:21;;;;;;;6.97;3.47;;;;;;;11.97;43.05;100646.16;3536058;40;20065;-73
2021/05/18 00:40:50;;;;;;;4.85;2.95;;;;;;;11.96;42.80;100638.94;3536523;40;20058;-73
2021/05/18 00:43:18;;;;;;;6.47;3.55;;;;;;;11.93;42.93;100640.13;3531878;40;20054;-74
2021/05/18 00:45:49;;;;;;;5.60;3.65;;;;;;;11.93;42.80;100642.84;3536582;40;20047;-73
2021/05/18 00:48:19;;;;;;;5.78;3.22;;;;;;;11.92;43.07;100635.66;3526098;40;20431;-73
2021/05/18 00:50:49;;;;;;;5.07;2.97;;;;;;;11.93;43.01;100642.00;3536081;40;20042;-73
2021/05/18 00:53:18;;;;;;;6.13;3.67;;;;;;;11.92;43.24;100637.53;3527682;40;20132;-73
2021/05/18 00:55:56;;;;;;;5.82;3.60;;;;;;;11.91;43.09;100635.78;3527784;40;20195;-74
2021/05/18 00:58:33;;;;;;;7.20;4.28;;;;;;;11.91;43.24;100633.91;3534149;40;20055;-73
2021/05/18 01:01:04;;;;;;;6.45;3.40;;;;;;;11.90;43.09;100632.16;3535268;40;20066;-73
2021/05/18 01:03:34;;;;;;;5.57;3.20;;;;;;;11.90;43.10;100639.50;3534359;40;20149;-73
2021/05/18 01:06:22;;;;;;;5.20;3.30;;;;;;;11.88;43.58;100633.28;3536162;40;20055;-73
2021/05/18 01:08:53;;;;;;;5.05;3.70;;;;;;;11.90;43.65;100634.00;3528952;40;20059;-73
2021/05/18 01:11:24;;;;;;;6.20;3.10;;;;;;;11.90;43.65;100643.09;3530392;40;20043;-73
2021/05/18 01:13:56;;;;;;;4.85;3.47;;;;;;;11.92;43.62;100652.09;3536217;40;20042;-72
2021/05/18 01:16:26;;;;;;;6.05;3.78;;;;;;;11.91;43.65;100657.72;3534366;40;20323;-72
2021/05/18 01:18:54;;;;;;;5.47;3.42;;;;;;;11.94;44.13;100666.50;3519373;40;20419;-72
2021/05/18 01:21:24;;;;;;;5.80;3.55;;;;;;;11.96;44.12;100669.09;3536141;40;20051;-72
2021/05/18 01:23:53;;;;;;;6.22;4.10;;;;;;;11.95;44.31;100664.63;3528272;40;20464;-72
2021/05/18 01:26:22;;;;;;;7.32;4.90;;;;;;;11.97;44.25;100665.34;3530567;40;20144;-72
2021/05/18 01:28:50;;;;;;;7.10;4.05;;;;;;;11.98;44.07;100667.94;3531141;40;20407;-72
2021/05/18 01:31:22;;;;;;;8.05;4.80;;;;;;;11.98;44.32;100659.72;3541320;40;20175;-72
2021/05/18 01:33:53;;;;;;;7.43;5.05;;;;;;;11.99;44.67;100666.06;3535840;40;20119;-73
2021/05/18 01:36:26;;;;;;;8.05;4.90;;;;;;;12.00;44.44;100659.56;3536487;40;20049;-73
2021/05/18 01:38:59;;;;;;;8.45;4.75;;;;;;;12.00;44.58;100662.31;3536937;40;20403;-74
2021/05/18 01:44:49;;;;;;;6.38;4.70;;;;;;;11.98;44.78;100670.69;3537596;40;20079;-73
2021/05/18 01:47:37;;;;;;;7.72;4.55;;;;;;;11.98;44.67;100656.97;3528782;40;20427;-73
2021/05/18 01:50:28;;;;;;;8.52;5.75;;;;;;;12.00;44.95;100665.94;3530227;40;20408;-73
2021/05/18 01:53:19;;;;;;;6.40;4.50;;;;;;;12.01;45.22;100673.16;3541404;40;20056;-73
2021/05/18 01:56:17;;;;;;;9.80;5.20;;;;;;;12.00;44.97;100670.53;3532982;40;20042;-73
2021/05/18 01:59:07;;;;;;;8.63;5.18;;;;;;;12.00;44.93;100671.41;3523654;40;20185;-73
2021/05/18 02:02:03;;;;;;;9.32;6.18;;;;;;;12.01;45.02;100669.53;3531874;40;20061;-73
2021/05/18 02:04:49;;;;;;;9.07;5.30;;;;;;;12.01;45.17;100673.16;3536215;40;20058;-73
2021/05/18 02:07:32;;;;;;;9.20;5.65;;;;;;;11.99;45.24;100675.16;3518270;40;20340;-73
2021/05/18 02:10:21;;;;;;;7.65;5.47;;;;;;;12.00;45.24;100679.63;3536093;40;20053;-73
2021/05/18 02:13:30;;;;;;;7.95;5.32;;;;;;;11.98;45.18;100669.81;3531207;40;20301;-73
2021/05/18 02:16:26;;;;;;;7.68;4.72;;;;;;;11.98;45.31;100669.81;3528982;40;20058;-74
2021/05/18 02:19:24;;;;;;;7.50;4.63;;;;;;;11.97;45.32;100671.69;3531163;40;20051;-73
2021/05/18 02:24:37;;;;;;;7.43;4.60;;;;;;;11.97;45.53;100676.31;3533205;40;20086;-74
2021/05/18 02:25:41;;;;;;;8.15;4.93;;;;;;;11.97;45.55;100681.78;3533406;40;20052;-74
2021/05/18 02:28:39;;;;;;;8.88;4.70;;;;;;;11.97;45.50;100684.53;3538136;40;20082;-74
2021/05/18 02:31:27;;;;;;;6.43;4.53;;;;;;;11.96;45.41;100686.41;3538084;40;20039;-74
2021/05/18 02:34:23;;;;;;;5.05;3.35;;;;;;;11.96;45.62;100677.31;3536163;40;20083;-74
2021/05/18 02:37:10;;;;;;;5.63;3.55;;;;;;;11.96;45.72;100683.66;3529543;40;20039;-74
2021/05/18 02:40:01;;;;;;;4.95;3.05;;;;;;;11.96;45.15;100680.06;3537344;40;20066;-74
2021/05/18 02:42:51;;;;;;;4.90;2.50;;;;;;;11.96;45.52;100689.16;3538067;40;20057;-74
2021/05/18 02:45:44;;;;;;;3.95;2.40;;;;;;;11.94;45.54;100679.34;3537976;40;20063;-74
2021/05/18 02:49:08;;;;;;;4.25;2.15;;;;;;;11.97;45.86;100679.91;3528518;40;20085;-74
2021/05/18 02:51:37;;;;;;;2.53;1.58;;;;;;;11.94;45.70;100684.81;3534734;40;20079;-74
2021/05/18 02:54:05;;;;;;;2.58;1.67;;;;;;;11.92;45.70;100679.50;3524502;40;20425;-75
2021/05/18 02:56:38;;;;;;;2.95;1.75;;;;;;;11.92;45.53;100681.38;3537554;40;20113;-75
2021/05/18 02:59:13;;;;;;;2.85;1.80;;;;;;;11.92;45.83;100678.63;3528860;40;20051;-75
2021/05/18 03:01:42;;;;;;;2.25;1.50;;;;;;;11.91;45.27;100676.91;3538130;40;20117;-75
2021/05/18 03:04:10;;;;;;;2.33;1.30;;;;;;;11.89;45.53;100673.41;3537804;40;20062;-74
2021/05/18 03:06:38;;;;;;;2.92;1.40;;;;;;;11.89;45.69;100687.09;3527134;40;20058;-75
2021/05/18 03:09:10;;;;;;;3.85;1.58;;;;;;;11.89;45.86;100677.00;3528225;40;20050;-74
2021/05/18 03:11:39;;;;;;;1.90;1.45;;;;;;;11.89;45.93;100679.75;3527706;40;21504;-74
2021/05/18 03:14:09;;;;;;;2.45;1.50;;;;;;;11.90;45.85;100683.34;3537947;40;20087;-74
2021/05/18 03:16:37;;;;;;;2.05;1.30;;;;;;;11.88;45.92;100680.75;3536288;40;20080;-74
2021/05/18 03:19:06;;;;;;;3.10;1.40;;;;;;;11.88;45.77;100685.38;3533121;40;20058;-75
2021/05/18 03:21:34;;;;;;;1.90;1.30;;;;;;;11.87;45.98;100680.91;3535467;40;20062;-74
2021/05/18 03:24:02;;;;;;;2.42;1.52;;;;;;;11.87;46.20;100683.63;3531948;40;20102;-75
2021/05/18 03:26:31;;;;;;;1.80;1.23;;;;;;;11.85;45.92;100681.06;3536669;40;20062;-74
2021/05/18 03:29:01;;;;;;;2.42;1.40;;;;;;;11.86;46.07;100670.94;3536808;40;20297;-74
2021/05/18 03:34:31;;;;;;;2.92;1.25;;;;;;;11.84;46.33;100676.59;3536861;40;20121;-74
2021/05/18 03:37:02;;;;;;;2.80;1.50;;;;;;;11.85;46.20;100678.31;3534404;40;20059;-74
2021/05/18 03:39:31;;;;;;;3.08;1.40;;;;;;;11.85;46.00;100678.31;3524731;40;20541;-75
2021/05/18 03:42:03;;;;;;;2.95;1.55;;;;;;;11.85;46.09;100674.72;3535663;40;20321;-74
2021/05/18 03:53:04;;;;;;;3.47;2.20;;;;;;;11.83;46.10;100684.94;3536718;40;20070;-74
2021/05/18 03:58:42;;;;;;;2.30;1.60;;;;;;;11.83;46.94;100684.94;3515892;40;20053;-75
2021/05/18 04:04:06;;;;;;;3.78;1.88;;;;;;;11.83;46.57;100690.44;3532746;40;20568;-74
2021/05/18 04:17:51;;;;;;;3.75;2.40;;;;;;;11.81;46.45;100695.19;3517050;40;20059;-74
2021/05/18 04:20:33;;;;;;;5.25;2.35;;;;;;;11.83;46.49;100696.78;3536105;40;20091;-74
2021/05/18 04:41:42;;;;;;;5.90;2.40;;;;;;;11.83;46.44;100704.13;3536427;40;20059;-74
2021/05/18 04:50:53;;;;;;;6.40;2.70;;;;;;;11.85;46.47;100707.59;3529250;40;20396;-74
2021/05/18 04:54:11;;;;;;;6.03;2.67;;;;;;;11.87;46.79;100711.03;3526586;40;20051;-74
2021/05/18 05:00:08;;;;;;;5.25;2.63;;;;;;;11.89;46.89;100717.25;3530095;40;20063;-73
2021/05/18 05:06:15;;;;;;;4.25;2.30;;;;;;;11.90;46.98;100719.84;3520838;40;20054;-73
2021/05/18 05:09:10;;;;;;;6.30;2.75;;;;;;;11.94;47.22;100723.19;3538210;40;20407;-73
2021/05/18 05:12:37;;;;;;;5.07;2.63;;;;;;;11.92;46.82;100723.34;3538158;40;20377;-72
2021/05/18 05:15:24;;;;;;;7.03;2.70;;;;;;;11.92;46.88;100730.72;3531448;40;20047;-73
2021/05/18 05:18:12;;;;;;;4.88;2.53;;;;;;;11.95;46.90;100733.16;3536712;40;20079;-73
2021/05/18 05:20:59;;;;;;;5.90;2.42;;;;;;;11.96;47.01;100738.50;3538194;40;20058;-73
2021/05/18 05:23:48;;;;;;;4.22;2.47;;;;;;;11.97;47.04;100729.25;3538067;40;20404;-72
2021/05/18 05:26:37;;;;;;;4.32;2.45;;;;;;;11.99;47.05;100738.22;3539143;40;20613;-73
2021/05/18 05:29:25;;;;;;;4.90;2.67;;;;;;;11.99;47.00;100738.22;3539343;40;20063;-74
2021/05/18 05:32:13;;;;;;;4.47;2.63;;;;;;;11.99;46.90;100734.59;3523564;40;20055;-74
2021/05/18 05:35:00;;;;;;;5.95;2.88;;;;;;;12.00;47.05;100736.34;3537031;40;20047;-74
2021/05/18 05:37:48;;;;;;;4.05;2.35;;;;;;;12.00;46.99;100739.94;3529855;40;20059;-74
2021/05/18 05:40:36;;;;;;;6.00;3.10;;;;;;;12.01;47.11;100740.81;3529261;40;20085;-73
2021/05/18 05:43:25;;;;;;;5.82;3.20;;;;;;;12.03;47.13;100742.38;3539260;40;20046;-74
2021/05/18 05:46:13;;;;;;;6.03;3.03;;;;;;;12.04;47.00;100746.00;3535441;40;20062;-74
2021/05/18 05:49:00;;;;;;;8.90;3.47;;;;;;;12.04;47.35;100740.50;3532386;40;20031;-74
2021/05/18 05:51:29;;;;;;;8.50;3.92;;;;;;;12.07;46.89;100744.84;3533267;40;20059;-74
2021/05/18 05:53:59;;;;;;;7.03;3.22;;;;;;;12.08;47.14;100747.44;3537252;40;20070;-75
2021/05/18 05:56:30;;;;;;;6.78;3.47;;;;;;;12.07;47.19;100742.09;3532881;40;20043;-75
2021/05/18 05:59:00;;;;;;;7.38;3.00;;;;;;;12.08;47.21;100744.72;3537423;40;20062;-76
2021/05/18 06:01:31;;;;;;;6.88;3.05;;;;;;;12.08;47.19;100757.56;3525800;40;20039;-76
2021/05/18 06:03:59;;;;;;;7.22;3.70;;;;;;;12.08;47.42;100747.44;3535563;40;20416;-77
2021/05/18 06:06:27;;;;;;;7.13;3.75;;;;;;;12.09;47.53;100748.31;3534839;40;20035;-77
2021/05/18 06:08:55;;;;;;;9.02;3.80;;;;;;;12.11;47.68;100759.97;3537648;40;20103;-76
2021/05/18 06:11:28;;;;;;;6.22;3.20;;;;;;;12.11;47.40;100763.59;3531528;40;20035;-78
2021/05/18 06:14:08;;;;;;;6.22;3.40;;;;;;;12.12;47.85;100759.84;3534605;40;20050;-76
2021/05/18 06:17:08;;;;;;;5.43;2.72;;;;;;;12.14;47.59;100763.31;3533661;40;20050;-77
2021/05/18 06:37:00;;;;;;;7.13;3.67;;;;;;;12.47;48.02;100763.84;3513209;40;20517;-77
2021/05/18 06:42:38;;;;;;;5.57;3.25;;;;;;;12.55;48.06;100773.06;3528193;40;19958;-76
2021/05/18 06:47:53;;;;;;;9.13;4.25;;;;;;;12.69;47.92;100788.22;3536498;40;20116;-74
2021/05/18 06:50:29;;;;;;;7.35;3.95;;;;;;;12.73;48.13;100787.78;3533730;40;20062;-73
2021/05/18 06:52:57;;;;;;;6.25;4.05;;;;;;;12.76;48.08;100789.34;3525055;40;20051;-74
2021/05/18 06:55:28;;;;;;;6.30;3.85;;;;;;;12.81;48.06;100787.03;3538623;40;20137;-74
2021/05/18 06:58:04;;;;;;;8.40;3.65;;;;;;;12.87;47.97;100802.03;3537250;40;20059;-74
2021/05/18 07:00:33;;;;;;;7.18;3.47;;;;;;;12.93;48.19;100794.09;3535674;40;20580;-73
2021/05/18 07:03:02;;;;;;;6.55;3.85;;;;;;;12.98;48.08;100789.03;3517680;40;20051;-73
2021/05/18 07:05:36;;;;;;;6.88;3.25;;;;;;;13.05;47.95;100794.78;3538590;40;20101;-77
2021/05/18 07:08:23;;;;;;;6.05;3.28;;;;;;;13.10;47.89;100797.94;3530660;40;20062;-76
2021/05/18 07:10:52;;;;;;;6.40;3.72;;;;;;;13.12;47.54;100796.78;3538942;40;20066;-77
2021/05/18 07:13:20;;;;;;;7.75;4.47;;;;;;;13.18;47.49;100809.03;3526510;40;20051;-77
2021/05/18 07:15:48;;;;;;;6.70;4.30;;;;;;;13.23;48.19;100794.88;3534127;40;20050;-76
2021/05/18 07:18:16;;;;;;;6.85;4.18;;;;;;;13.32;48.36;100802.22;3537107;40;20054;-77
2021/05/18 07:20:45;;;;;;;7.32;4.18;;;;;;;13.44;48.44;100806.47;3531176;40;20523;-76
2021/05/18 07:23:18;;;;;;;7.13;4.30;;;;;;;13.54;48.35;100805.41;3537538;40;20050;-76
2021/05/18 07:25:46;;;;;;;7.65;4.55;;;;;;;13.67;48.30;100805.03;3537059;40;20400;-76
2021/05/18 07:28:16;;;;;;;7.93;4.82;;;;;;;13.76;47.53;100806.84;3537873;40;20050;-76
2021/05/18 07:30:44;;;;;;;9.63;5.38;;;;;;;13.83;47.18;100813.47;3537548;40;20085;-76
2021/05/18 07:33:12;;;;;;;10.35;5.40;;;;;;;13.90;46.96;100822.03;3525787;40;20031;-77
2021/05/18 07:35:41;;;;;;;7.80;5.20;;;;;;;13.92;46.31;100817.19;3537262;40;20086;-76
2021/05/18 07:38:10;;;;;;;6.93;4.78;;;;;;;13.97;46.82;100814.00;3539232;40;20054;-79
2021/05/18 07:40:38;;;;;;;8.15;4.82;;;;;;;13.99;46.94;100818.34;3539445;40;20070;-78
2021/05/18 07:43:06;;;;;;;9.55;5.47;;;;;;;14.06;47.09;100813.06;3530501;40;20086;-77
2021/05/18 07:45:34;;;;;;;8.13;5.10;;;;;;;14.11;46.89;100818.97;3526003;40;20118;-77
2021/05/18 07:48:11;;;;;;;8.07;4.85;;;;;;;14.18;46.70;100815.41;3528394;40;20059;-74
2021/05/18 07:50:45;;;;;;;8.48;5.32;;;;;;;14.24;46.59;100820.28;3531240;40;20051;-76
2021/05/18 08:07:04;;;;;;;9.45;5.90;;;;;;;14.33;45.17;100812.97;3538148;40;20059;-73
2021/05/18 08:09:38;;;;;;;10.20;5.60;;;;;;;14.37;45.52;100821.78;3536086;40;20681;-73
2021/05/18 08:12:06;;;;;;;7.35;5.05;;;;;;;14.35;45.28;100821.06;3535527;40;20054;-73
2021/05/18 08:14:37;;;;;;;7.68;4.82;;;;;;;14.36;45.08;100812.66;3534242;40;20133;-73
2021/05/18 08:17:18;;;;;;;8.25;5.10;;;;;;;14.39;45.29;100814.25;3537304;40;20062;-77
2021/05/18 08:20:12;;;;;;;8.05;5.78;;;;;;;14.41;45.71;100813.06;3530406;40;20568;-77
2021/05/18 10:37:36;;;;;;;5.38;4.22;;;;;;;16.65;39.57;100816.34;3535142;40;20063;-73
2021/05/18 10:40:26;;;;;;;5.38;3.80;;;;;;;16.72;39.27;100812.72;3529955;40;20058;-73
2021/05/18 10:43:25;;;;;;;5.18;3.15;;;;;;;16.76;39.00;100819.66;3534962;40;20066;-73
2021/05/18 10:46:10;;;;;;;4.53;3.50;;;;;;;16.84;38.28;100805.81;3535781;40;20389;-73
2021/05/18 10:48:58;;;;;;;5.78;3.92;;;;;;;16.89;38.37;100811.66;3534321;40;20094;-73
2021/05/18 10:51:51;;;;;;;5.65;4.18;;;;;;;16.96;37.84;100811.00;3531942;40;20083;-73
2021/05/18 10:54:27;;;;;;;4.80;3.78;;;;;;;17.02;38.13;100813.91;3534318;40;20054;-74
2021/05/18 10:57:11;;;;;;;6.22;4.22;;;;;;;17.12;37.65;100813.72;3532775;40;20137;-73
2021/05/18 10:59:41;;;;;;;6.00;3.83;;;;;;;17.15;38.30;100808.69;3532189;40;20290;-73
2021/05/18 11:02:11;;;;;;;4.70;3.90;;;;;;;17.23;37.66;100816.97;3533040;40;20055;-74
2021/05/18 11:04:41;;;;;;;4.72;3.72;;;;;;;17.26;37.22;100815.75;3535220;40;20055;-73
2021/05/18 11:07:10;;;;;;;4.68;3.88;;;;;;;17.29;37.09;100815.41;3537044;40;20066;-74
2021/05/18 11:09:39;;;;;;;5.82;3.92;;;;;;;17.35;37.42;100817.50;3537327;40;20055;-74
2021/05/18 11:12:10;;;;;;;5.80;4.20;;;;;;;17.43;36.81;100817.47;3537225;40;20399;-73
2021/05/18 11:14:46;;;;;;;4.93;3.92;;;;;;;17.49;36.10;100833.34;3537926;40;20094;-74
2021/05/18 11:17:23;;;;;;;4.68;3.40;;;;;;;17.54;35.68;100822.59;3537732;40;20070;-74
2021/05/18 11:20:09;;;;;;;5.10;4.13;;;;;;;17.60;35.54;100823.78;3535662;40;20058;-73
2021/05/18 11:25:54;;;;;;;4.90;4.20;;;;;;;17.62;35.13;100816.16;3535888;40;20086;-72
2021/05/18 11:28:27;;;;;;;6.18;4.15;;;;;;;17.66;33.96;100804.56;3534252;40;20075;-75
2021/05/18 11:30:57;;;;;;;4.35;3.22;;;;;;;17.65;35.22;100807.50;3533061;40;20344;-79
2021/05/18 11:33:33;;;;;;;4.05;2.95;;;;;;;17.68;34.16;100815.47;3527325;40;20063;-77
2021/05/18 11:36:08;;;;;;;4.88;3.30;;;;;;;17.66;33.53;100809.25;3544113;40;20284;-76
2021/05/18 11:38:38;;;;;;;3.58;2.83;;;;;;;17.64;34.23;100814.09;3538454;40;20035;-77
2021/05/18 11:41:06;;;;;;;4.20;3.13;;;;;;;17.63;34.60;100810.44;3532230;40;20085;-78
2021/05/18 11:43:37;;;;;;;4.80;3.22;;;;;;;17.64;33.94;100814.09;3538051;40;20042;-78
2021/05/18 11:46:08;;;;;;;4.55;3.25;;;;;;;17.64;33.69;100814.09;3534511;40;20031;-78
2021/05/18 11:48:39;;;;;;;4.30;3.15;;;;;;;17.62;33.96;100818.91;3539224;40;20091;-77
2021/05/18 11:51:12;;;;;;;4.93;3.35;;;;;;;17.65;34.02;100807.50;3536267;40;20028;-78
2021/05/18 11:53:41;;;;;;;3.75;3.35;;;;;;;17.62;33.55;100805.97;3534909;40;20042;-78
2021/05/18 11:56:31;;;;;;;4.50;3.10;;;;;;;17.62;33.33;100807.84;3539166;40;20087;-78
2021/05/18 11:59:04;;;;;;;4.25;2.97;;;;;;;17.63;33.23;100810.44;3537235;40;20054;-78
2021/05/18 12:01:35;;;;;;;3.90;2.35;;;;;;;17.63;34.41;100804.91;3537230;40;20039;-77
2021/05/18 12:04:05;;;;;;;4.03;2.80;;;;;;;17.71;33.28;100812.31;3530118;40;20078;-82
2021/05/18 12:06:35;;;;;;;4.53;2.88;;;;;;;17.74;33.52;100811.09;3531309;40;20051;-81
2021/05/18 12:09:06;;;;;;;4.30;3.03;;;;;;;17.77;33.93;100805.22;3530408;40;20317;-80
2021/05/18 12:11:34;;;;;;;4.13;3.08;;;;;;;17.84;33.24;100809.84;3522643;40;20036;-80
2021/05/18 12:14:11;;;;;;;3.90;2.78;;;;;;;17.93;32.36;100799.59;3522342;40;20036;-81
2021/05/18 12:16:43;;;;;;;3.38;2.33;;;;;;;17.97;31.98;100803.72;3531302;40;20075;-82
2021/05/18 12:19:14;;;;;;;3.33;2.33;;;;;;;18.00;32.87;100800.59;3521967;40;20395;-79
2021/05/18 12:21:44;;;;;;;3.90;2.55;;;;;;;18.03;32.63;100803.84;3531850;40;20412;-79
2021/05/18 12:24:15;;;;;;;3.55;2.65;;;;;;;18.07;32.70;100801.59;3533886;40;20049;-80
2021/05/18 12:26:52;;;;;;;3.72;2.95;;;;;;;18.15;31.60;100807.09;3539556;40;20043;-81
2021/05/18 12:29:32;;;;;;;4.15;3.25;;;;;;;18.17;31.24;100829.94;3540065;40;20636;-79
2021/05/18 12:32:16;;;;;;;4.35;3.75;;;;;;;18.22;32.27;100841.31;3530212;40;20039;-79
2021/05/18 12:34:45;;;;;;;5.30;3.47;;;;;;;18.19;31.34;100844.47;3522290;40;20043;-78
2021/05/18 12:37:13;;;;;;;4.65;3.30;;;;;;;18.12;31.97;100856.41;3538643;40;20051;-78
2021/05/18 12:39:43;;;;;;;4.78;3.20;;;;;;;18.03;32.67;100866.66;3535904;40;20133;-76
2021/05/18 12:42:15;;;;;;;5.05;3.40;;;;;;;17.92;33.40;100862.38;3533959;40;20569;-76
2021/05/18 12:44:52;;;;;;;4.30;3.20;;;;;;;17.80;33.43;100879.53;3537447;40;20115;-76
2021/05/18 12:47:30;;;;;;;4.90;3.13;;;;;;;17.63;33.85;100876.84;3537928;40;20057;-77
2021/05/18 12:49:59;;;;;;;4.47;3.05;;;;;;;17.47;34.16;100879.66;3538849;40;20086;-78
2021/05/18 12:52:35;;;;;;;3.67;2.65;;;;;;;17.34;34.60;100867.44;3540013;40;20039;-78
2021/05/18 12:55:13;;;;;;;3.60;2.65;;;;;;;17.19;34.88;100864.50;3529091;40;20055;-76
2021/05/18 12:57:54;;;;;;;3.90;2.47;;;;;;;17.05;35.27;100863.28;3533318;40;20076;-75
2021/05/18 13:00:26;;;;;;;3.67;2.25;;;;;;;16.94;35.92;100864.53;3536819;40;20050;-74
2021/05/18 13:02:55;;;;;;;3.92;2.72;;;;;;;16.83;35.59;100866.78;3535713;40;20051;-75
2021/05/18 13:05:27;;;;;;;3.72;2.42;;;;;;;16.79;35.62;100857.97;3525091;40;20430;-73
2021/05/18 13:08:06;;;;;;;;;;;;;;;16.46;36.01;100858.97;3536993;40;20656;-72
2021/05/18 13:10:46;;;;;;;2.60;1.70;;;;;;;16.64;35.45;100856.06;3536455;40;19934;-75
2021/05/18 13:13:14;;;;;;;3.22;2.10;;;;;;;16.60;35.40;100854.69;3537508;40;20035;-76
2021/05/18 13:15:43;;;;;;;3.40;2.28;;;;;;;16.57;35.72;100853.13;3537059;40;20054;-74
2021/05/18 13:18:13;;;;;;;3.60;2.05;;;;;;;16.51;35.61;100862.09;3529236;40;20066;-73
2021/05/18 13:20:53;;;;;;;2.88;1.98;;;;;;;16.46;35.83;100859.84;3529953;40;20084;-75
2021/05/18 13:23:30;;;;;;;4.78;2.20;;;;;;;16.42;35.88;100869.47;3529063;40;20035;-75
2021/05/18 13:28:45;;;;;;;3.40;2.17;;;;;;;16.31;36.00;100866.16;3539129;40;20404;-77
2021/05/18 13:31:13;;;;;;;2.50;1.77;;;;;;;16.29;36.22;100859.97;3534465;40;20066;-75
2021/05/18 13:33:44;;;;;;;2.92;1.70;;;;;;;16.29;35.92;100855.31;3537447;40;20058;-76
2021/05/18 13:36:38;;;;;;;2.92;2.13;;;;;;;16.21;35.54;100855.31;3536718;40;20062;-77
2021/05/18 13:39:08;;;;;;;4.07;2.30;;;;;;;16.21;35.85;100844.25;3538400;40;20145;-75
2021/05/18 13:41:37;;;;;;;3.00;1.75;;;;;;;16.17;36.04;100843.72;3536102;40;20042;-76
2021/05/18 13:44:06;;;;;;;3.47;1.80;;;;;;;16.17;36.29;100854.75;3537889;40;20137;-76
2021/05/18 13:46:36;;;;;;;4.13;2.45;;;;;;;16.16;35.59;100846.66;3538828;40;20047;-76
2021/05/18 13:49:10;;;;;;;3.40;2.38;;;;;;;16.10;35.67;100859.25;3529896;40;20066;-77
2021/05/18 13:51:38;;;;;;;3.22;2.05;;;;;;;16.07;36.08;100861.44;3530068;40;20160;-76
2021/05/18 13:54:13;;;;;;;3.70;2.03;;;;;;;16.01;35.73;100864.91;3530433;40;20620;-76
2021/05/18 13:56:42;;;;;;;3.78;2.35;;;;;;;15.96;35.77;100868.16;3537164;40;20116;-77
2021/05/18 13:59:09;;;;;;;3.78;2.47;;;;;;;15.92;36.10;100876.94;3530798;40;20114;-78
2021/05/18 14:01:38;;;;;;;3.13;1.80;;;;;;;15.88;36.24;100873.66;3528862;40;20050;-78
2021/05/18 14:04:06;;;;;;;3.63;1.88;;;;;;;15.85;36.02;100878.63;3529455;40;20051;-77
2021/05/18 14:06:48;;;;;;;3.13;2.00;;;;;;;15.83;36.45;100873.28;3533645;40;20050;-76
2021/05/18 14:09:17;;;;;;;3.23;2.07;;;;;;;15.78;36.42;100871.03;3521499;40;20114;-76
2021/05/18 14:11:45;;;;;;;4.20;2.13;;;;;;;15.81;36.30;100880.84;3532626;40;20035;-77
2021/05/18 14:14:12;;;;;;;3.40;2.08;;;;;;;15.80;37.20;100862.59;3535946;40;20094;-75
2021/05/18 14:16:42;;;;;;;3.70;2.45;;;;;;;15.81;37.35;100865.16;3536628;40;20357;-79
2021/05/18 14:19:10;;;;;;;4.07;2.30;;;;;;;15.82;36.96;100857.75;3533212;40;20027;-80
2021/05/18 14:21:40;;;;;;;4.05;2.33;;;;;;;15.86;37.46;100859.16;3532458;40;20272;-83
2021/05/18 14:24:12;;;;;;;3.60;2.25;;;;;;;15.86;36.90;100861.91;3541333;40;20414;-82
2021/05/18 14:26:40;;;;;;;3.35;2.22;;;;;;;15.86;37.15;100861.06;3531965;40;20375;-78
2021/05/18 14:29:08;;;;;;;3.88;2.22;;;;;;;15.89;37.14;100860.72;3537863;40;20064;-79
2021/05/18 14:31:38;;;;;;;4.07;2.30;;;;;;;15.90;36.76;100856.91;3531073;40;20121;-79
2021/05/18 14:34:08;;;;;;;3.65;2.25;;;;;;;15.92;36.94;100858.47;3531324;40;20110;-77
2021/05/18 14:36:36;;;;;;;4.45;2.22;;;;;;;15.93;36.83;100867.63;3537639;40;20343;-81
2021/05/18 14:39:08;;;;;;;3.60;2.40;;;;;;;15.96;36.73;100856.28;3535774;40;20109;-80
2021/05/18 14:44:23;;;;;;;3.13;2.00;;;;;;;15.95;37.18;100858.16;3531641;40;20031;-80
2021/05/18 14:46:57;;;;;;;2.80;1.77;;;;;;;15.98;37.25;100852.28;3531233;40;20317;-81
2021/05/18 14:55:07;;;;;;;5.07;2.42;;;;;;;16.06;37.62;100857.84;3537747;40;20069;-78
2021/05/18 14:57:35;;;;;;;3.88;2.30;;;;;;;16.06;37.63;100854.22;3523337;40;20359;-78
2021/05/18 15:00:05;;;;;;;4.10;2.20;;;;;;;16.08;37.02;100861.28;3532066;40;20039;-78
2021/05/18 15:02:33;;;;;;;4.40;2.33;;;;;;;16.07;36.94;100861.44;3531511;40;20046;-78
2021/05/18 15:05:02;;;;;;;4.13;2.20;;;;;;;16.07;37.34;100864.22;3530734;40;20545;-78
2021/05/18 15:07:30;;;;;;;4.07;2.50;;;;;;;16.04;37.19;100859.06;3531142;40;20039;-79
2021/05/18 15:09:58;;;;;;;4.25;2.60;;;;;;;16.04;37.42;100859.91;3539803;40;20575;-80
2021/05/18 15:12:26;;;;;;;4.43;2.80;;;;;;;16.03;36.86;100855.44;3540813;40;20039;-79
2021/05/18 15:14:55;;;;;;;3.67;1.98;;;;;;;16.04;36.86;100853.53;3540783;40;20521;-80
2021/05/18 15:17:23;;;;;;;4.05;2.50;;;;;;;16.05;37.37;100853.38;3531085;40;20042;-77
2021/05/18 15:19:53;;;;;;;3.30;2.00;;;;;;;16.07;37.34;100861.44;3530448;40;20031;-80
2021/05/18 15:22:22;;;;;;;5.75;2.58;;;;;;;16.09;36.91;100860.25;3540150;40;20400;-81
2021/05/18 15:24:50;;;;;;;3.78;2.63;;;;;;;16.09;36.71;100864.91;3540894;40;20030;-80
2021/05/18 15:27:18;;;;;;;4.28;2.53;;;;;;;16.10;37.09;100869.41;3539679;40;20047;-80
2021/05/18 15:29:47;;;;;;;3.92;2.30;;;;;;;16.09;36.72;100871.31;3540882;40;20038;-79
2021/05/18 15:32:14;;;;;;;3.25;2.30;;;;;;;16.08;36.93;100883.38;3531608;40;20109;-81
2021/05/18 15:34:42;;;;;;;4.28;2.30;;;;;;;16.07;37.60;100891.81;3541203;40;20035;-79
2021/05/18 15:37:10;;;;;;;5.47;3.05;;;;;;;16.07;37.02;100931.31;3539501;40;20046;-76
2021/05/18 15:39:39;;;;;;;4.22;2.80;;;;;;;16.08;37.14;100932.19;3536266;40;20059;-76
2021/05/18 15:42:08;;;;;;;3.53;2.10;;;;;;;16.02;37.18;100927.31;3527214;40;20307;-74
2021/05/18 15:44:36;;;;;;;4.95;1.65;;;;;;;15.98;37.57;100914.88;3537093;40;20052;-75
2021/05/18 15:47:05;;;;;;;2.47;1.60;;;;;;;15.94;37.33;100913.50;3535261;40;20062;-76
2021/05/18 15:49:33;;;;;;;2.42;1.25;;;;;;;15.89;37.04;100908.47;3536253;40;20051;-76
2021/05/18 15:52:01;;;;;;;2.50;1.30;;;;;;;15.84;36.18;100890.69;3534516;40;20075;-76
2021/05/18 15:54:30;;;;;;;2.10;1.10;;;;;;;15.76;36.54;100897.91;3535937;40;20081;-77
2021/05/18 15:56:59;;;;;;;1.67;1.00;;;;;;;15.69;36.02;100901.50;3539385;40;20454;-75
2021/05/18 15:59:27;;;;;;;1.48;1.00;;;;;;;15.61;36.97;100909.69;3537572;40;20050;-76
2021/05/18 16:01:55;;;;;;;2.33;1.20;;;;;;;15.55;37.45;100918.63;3531350;40;20039;-78
2021/05/18 16:04:23;;;;;;;2.03;1.20;;;;;;;15.51;37.59;100912.56;3531296;40;20117;-77
2021/05/18 16:07:18;;;;;;;2.40;1.35;;;;;;;15.46;38.03;100919.59;3528554;40;20058;-76
2021/05/18 16:09:46;;;;;;;2.10;1.40;;;;;;;15.43;38.50;100913.38;3528196;40;20137;-77
2021/05/18 16:12:15;;;;;;;1.77;1.10;;;;;;;15.44;37.93;100917.00;3538640;40;20063;-78